sensor_id;sensor_type;location;lat;lon;timestamp;pressure;altitude;pressure_sealevel;temperature;humidity
18652;BME280;9455;54.302;10.124;2023-11-21T00:02:02;101086.06;;;8.26;100.00
18652;BME280;9455;54.302;10.124;2023-11-21T00:04:29;101083.28;;;8.27;100.00
18652;BME280;9455;54.302;10.124;2023-11-21T00:06:56;101077.66;;;8.32;100.00
18652;BME280;9455;54.302;10.124;2023-11-21T00:09:23;101086.06;;;8.26;100.00
18652;BME280;9455;54.302;10.124;2023-11-21T00:11:49;101085.84;;;8.29;100.00
18652;BME280;9455;54.302;10.124;2023-11-21T00:14:16;101086.81;;;8.28;100.00
18652;BME280;9455;54.302;10.124;2023-11-21T00:16:43;101080.31;;;8.19;100.00
18652;BME280;9455;54.302;10.124;2023-11-21T00:19:11;101083.63;;;8.10;100.00
18652;BME280;9455;54.302;10.124;2023-11-21T00:21:38;101080.13;;;8.10;100.00
18652;BME280;9455;54.302;10.124;2023-11-21T00:24:05;101091.72;;;8.21;100.00
18652;BME280;9455;54.302;10.124;2023-11-21T00:26:32;101088.16;;;8.21;100.00
18652;BME280;9455;54.302;10.124;2023-11-21T00:29:02;101092.84;;;8.17;100.00
18652;BME280;9455;54.302;10.124;2023-11-21T00:31:28;101093.59;;;8.19;100.00
18652;BME280;9455;54.302;10.124;2023-11-21T00:33:56;101099.22;;;8.15;100.00
18652;BME280;9455;54.302;10.124;2023-11-21T00:36:24;101100.91;;;8.16;100.00
18652;BME280;9455;54.302;10.124;2023-11-21T00:38:51;101111.53;;;8.16;100.00
18652;BME280;9455;54.302;10.124;2023-11-21T00:41:17;101110.50;;;8.18;100.00
18652;BME280;9455;54.302;10.124;2023-11-21T00:43:44;101110.31;;;8.21;100.00
18652;BME280;9455;54.302;10.124;2023-11-21T00:46:11;101109.03;;;8.27;100.00
18652;BME280;9455;54.302;10.124;2023-11-21T00:48:38;101109.03;;;8.27;100.00
18652;BME280;9455;54.302;10.124;2023-11-21T00:51:05;101112.97;;;8.21;100.00
18652;BME280;9455;54.302;10.124;2023-11-21T00:53:33;101114.75;;;8.21;100.00
18652;BME280;9455;54.302;10.124;2023-11-21T00:56:00;101123.78;;;8.18;100.00
18652;BME280;9455;54.302;10.124;2023-11-21T00:58:27;101122.53;;;8.24;100.00
18652;BME280;9455;54.302;10.124;2023-11-21T01:00:55;101125.56;;;8.18;100.00
18652;BME280;9455;54.302;10.124;2023-11-21T01:03:23;101127.25;;;8.19;100.00
18652;BME280;9455;54.302;10.124;2023-11-21T01:05:49;101130.03;;;8.17;100.00
18652;BME280;9455;54.302;10.124;2023-11-21T01:08:16;101137.06;;;8.18;100.00
18652;BME280;9455;54.302;10.124;2023-11-21T01:10:44;101139.81;;;8.17;100.00
18652;BME280;9455;54.302;10.124;2023-11-21T01:13:11;101138.34;;;8.13;100.00
18652;BME280;9455;54.302;10.124;2023-11-21T01:15:38;101150.13;;;8.09;100.00
18652;BME280;9455;54.302;10.124;2023-11-21T01:18:05;101145.34;;;8.14;100.00
18652;BME280;9455;54.302;10.124;2023-11-21T01:20:31;101154.50;;;8.10;100.00
18652;BME280;9455;54.302;10.124;2023-11-21T01:22:58;101157.78;;;8.13;100.00
18652;BME280;9455;54.302;10.124;2023-11-21T01:25:24;101172.63;;;8.16;100.00
18652;BME280;9455;54.302;10.124;2023-11-21T01:27:53;101177.84;;;8.17;100.00
18652;BME280;9455;54.302;10.124;2023-11-21T01:30:19;101182.53;;;8.14;100.00
18652;BME280;9455;54.302;10.124;2023-11-21T01:32:46;101179.13;;;8.12;100.00
18652;BME280;9455;54.302;10.124;2023-11-21T01:35:12;101184.13;;;8.04;100.00
18652;BME280;9455;54.302;10.124;2023-11-21T01:37:39;101184.44;;;8.12;100.00
18652;BME280;9455;54.302;10.124;2023-11-21T01:40:07;101185.72;;;8.06;100.00
18652;BME280;9455;54.302;10.124;2023-11-21T01:42:38;101187.19;;;8.10;100.00
18652;BME280;9455;54.302;10.124;2023-11-21T01:45:07;101185.63;;;8.08;100.00
18652;BME280;9455;54.302;10.124;2023-11-21T01:47:35;101186.78;;;8.04;100.00
18652;BME280;9455;54.302;10.124;2023-11-21T01:50:03;101189.13;;;7.96;100.00
18652;BME280;9455;54.302;10.124;2023-11-21T01:52:31;101188.78;;;8.00;100.00
18652;BME280;9455;54.302;10.124;2023-11-21T01:54:57;101203.69;;;8.03;100.00
18652;BME280;9455;54.302;10.124;2023-11-21T01:57:25;101202.31;;;8.10;100.00
18652;BME280;9455;54.302;10.124;2023-11-21T01:59:54;101202.81;;;8.02;100.00
18652;BME280;9455;54.302;10.124;2023-11-21T02:02:22;101210.25;;;7.85;100.00
18652;BME280;9455;54.302;10.124;2023-11-21T02:04:49;101209.09;;;7.89;100.00
18652;BME280;9455;54.302;10.124;2023-11-21T02:07:16;101202.72;;;7.91;100.00
18652;BME280;9455;54.302;10.124;2023-11-21T02:09:44;101211.19;;;7.84;100.00
18652;BME280;9455;54.302;10.124;2023-11-21T02:12:11;101212.50;;;7.91;100.00
18652;BME280;9455;54.302;10.124;2023-11-21T02:14:37;101223.75;;;7.94;100.00
18652;BME280;9455;54.302;10.124;2023-11-21T02:17:04;101221.63;;;7.99;100.00
18652;BME280;9455;54.302;10.124;2023-11-21T02:19:33;101223.56;;;7.97;100.00
18652;BME280;9455;54.302;10.124;2023-11-21T02:22:00;101236.72;;;7.99;100.00
18652;BME280;9455;54.302;10.124;2023-11-21T02:24:31;101230.13;;;7.92;100.00
18652;BME280;9455;54.302;10.124;2023-11-21T02:26:58;101235.56;;;8.03;100.00
18652;BME280;9455;54.302;10.124;2023-11-21T02:29:25;101237.66;;;7.98;100.00
18652;BME280;9455;54.302;10.124;2023-11-21T02:31:54;101240.31;;;7.85;100.00
18652;BME280;9455;54.302;10.124;2023-11-21T02:34:21;101245.31;;;7.90;100.00
18652;BME280;9455;54.302;10.124;2023-11-21T02:36:48;101249.88;;;8.00;100.00
18652;BME280;9455;54.302;10.124;2023-11-21T02:39:16;101247.75;;;7.93;100.00
18652;BME280;9455;54.302;10.124;2023-11-21T02:41:44;101248.50;;;7.95;100.00
18652;BME280;9455;54.302;10.124;2023-11-21T02:44:11;101245.72;;;7.96;100.00
18652;BME280;9455;54.302;10.124;2023-11-21T02:46:38;101243.72;;;7.87;100.00
18652;BME280;9455;54.302;10.124;2023-11-21T02:49:04;101248.56;;;7.81;100.00
18652;BME280;9455;54.302;10.124;2023-11-21T02:51:32;101248.16;;;7.74;100.00
18652;BME280;9455;54.302;10.124;2023-11-21T02:53:59;101259.09;;;7.82;100.00
18652;BME280;9455;54.302;10.124;2023-11-21T02:56:28;101253.78;;;7.82;100.00
18652;BME280;9455;54.302;10.124;2023-11-21T02:58:56;101262.19;;;7.76;100.00
18652;BME280;9455;54.302;10.124;2023-11-21T03:01:23;101269.41;;;7.87;100.00
18652;BME280;9455;54.302;10.124;2023-11-21T03:03:50;101274.81;;;7.85;100.00
18652;BME280;9455;54.302;10.124;2023-11-21T03:06:17;101275.59;;;7.87;100.00
18652;BME280;9455;54.302;10.124;2023-11-21T03:08:44;101282.16;;;7.82;100.00
18652;BME280;9455;54.302;10.124;2023-11-21T03:11:10;101280.22;;;7.84;100.00
18652;BME280;9455;54.302;10.124;2023-11-21T03:13:38;101287.03;;;7.88;100.00
18652;BME280;9455;54.302;10.124;2023-11-21T03:16:07;101277.56;;;7.71;100.00
18652;BME280;9455;54.302;10.124;2023-11-21T03:18:34;101290.56;;;7.88;100.00
18652;BME280;9455;54.302;10.124;2023-11-21T03:21:01;101297.03;;;7.84;100.00
18652;BME280;9455;54.302;10.124;2023-11-21T03:23:28;101299.84;;;7.69;100.00
18652;BME280;9455;54.302;10.124;2023-11-21T03:25:54;101301.44;;;7.71;100.00
18652;BME280;9455;54.302;10.124;2023-11-21T03:28:21;101301.88;;;7.78;100.00
18652;BME280;9455;54.302;10.124;2023-11-21T03:30:48;101306.78;;;7.84;100.00
18652;BME280;9455;54.302;10.124;2023-11-21T03:33:16;101311.56;;;7.79;100.00
18652;BME280;9455;54.302;10.124;2023-11-21T03:35:43;101312.28;;;7.81;100.00
18652;BME280;9455;54.302;10.124;2023-11-21T03:38:10;101318.38;;;7.83;100.00
18652;BME280;9455;54.302;10.124;2023-11-21T03:40:37;101318.47;;;7.81;100.00
18652;BME280;9455;54.302;10.124;2023-11-21T03:43:04;101321.22;;;7.80;100.00
18652;BME280;9455;54.302;10.124;2023-11-21T03:45:31;101321.03;;;7.83;100.00
18652;BME280;9455;54.302;10.124;2023-11-21T03:47:57;101323.69;;;7.83;100.00
18652;BME280;9455;54.302;10.124;2023-11-21T03:50:28;101322.91;;;7.81;100.00
18652;BME280;9455;54.302;10.124;2023-11-21T03:52:54;101333.53;;;7.81;100.00
18652;BME280;9455;54.302;10.124;2023-11-21T03:55:21;101333.00;;;7.76;100.00
18652;BME280;9455;54.302;10.124;2023-11-21T03:57:48;101330.47;;;7.87;100.00
18652;BME280;9455;54.302;10.124;2023-11-21T04:00:15;101342.06;;;7.86;100.00
18652;BME280;9455;54.302;10.124;2023-11-21T04:02:42;101332.50;;;7.83;100.00
18652;BME280;9455;54.302;10.124;2023-11-21T04:05:09;101329.72;;;7.85;100.00
18652;BME280;9455;54.302;10.124;2023-11-21T04:07:37;101341.50;;;7.81;100.00
18652;BME280;9455;54.302;10.124;2023-11-21T04:10:05;101341.88;;;7.89;100.00
18652;BME280;9455;54.302;10.124;2023-11-21T04:12:34;101350.97;;;7.85;100.00
18652;BME280;9455;54.302;10.124;2023-11-21T04:15:00;101352.22;;;7.79;100.00
18652;BME280;9455;54.302;10.124;2023-11-21T04:17:27;101358.00;;;7.86;100.00
18652;BME280;9455;54.302;10.124;2023-11-21T04:19:53;101357.09;;;7.73;100.00
18652;BME280;9455;54.302;10.124;2023-11-21T04:22:20;101361.34;;;7.75;100.00
18652;BME280;9455;54.302;10.124;2023-11-21T04:24:48;101364.47;;;7.82;100.00
18652;BME280;9455;54.302;10.124;2023-11-21T04:27:14;101363.06;;;7.76;100.00
18652;BME280;9455;54.302;10.124;2023-11-21T04:29:43;101364.09;;;7.74;100.00
18652;BME280;9455;54.302;10.124;2023-11-21T04:32:09;101364.53;;;7.68;100.00
18652;BME280;9455;54.302;10.124;2023-11-21T04:34:37;101363.06;;;7.76;100.00
18652;BME280;9455;54.302;10.124;2023-11-21T04:37:04;101366.34;;;7.80;100.00
18652;BME280;9455;54.302;10.124;2023-11-21T04:39:31;101373.59;;;7.64;100.00
18652;BME280;9455;54.302;10.124;2023-11-21T04:41:59;101373.03;;;7.73;100.00
18652;BME280;9455;54.302;10.124;2023-11-21T04:44:26;101375.88;;;7.70;100.00
18652;BME280;9455;54.302;10.124;2023-11-21T04:46:52;101376.13;;;7.79;100.00
18652;BME280;9455;54.302;10.124;2023-11-21T04:49:19;101378.13;;;7.76;100.00
18652;BME280;9455;54.302;10.124;2023-11-21T04:51:45;101385.34;;;7.74;100.00
18652;BME280;9455;54.302;10.124;2023-11-21T04:54:12;101388.94;;;7.73;100.00
18652;BME280;9455;54.302;10.124;2023-11-21T04:56:39;101390.25;;;7.80;100.00
18652;BME280;9455;54.302;10.124;2023-11-21T04:59:06;101391.00;;;7.82;100.00
18652;BME280;9455;54.302;10.124;2023-11-21T05:01:33;101394.44;;;7.70;100.00
18652;BME280;9455;54.302;10.124;2023-11-21T05:04:01;101393.72;;;7.68;100.00
18652;BME280;9455;54.302;10.124;2023-11-21T05:06:28;101395.25;;;7.58;100.00
18652;BME280;9455;54.302;10.124;2023-11-21T05:08:55;101401.97;;;7.63;100.00
18652;BME280;9455;54.302;10.124;2023-11-21T05:11:24;101402.91;;;7.62;100.00
18652;BME280;9455;54.302;10.124;2023-11-21T05:13:51;101414.88;;;7.55;100.00
18652;BME280;9455;54.302;10.124;2023-11-21T05:16:19;101418.38;;;7.56;100.00
18652;BME280;9455;54.302;10.124;2023-11-21T05:18:46;101424.59;;;7.69;100.00
18652;BME280;9455;54.302;10.124;2023-11-21T05:21:13;101432.59;;;7.55;100.00
18652;BME280;9455;54.302;10.124;2023-11-21T05:23:40;101438.09;;;7.52;100.00
18652;BME280;9455;54.302;10.124;2023-11-21T05:26:06;101440.00;;;7.50;100.00
18652;BME280;9455;54.302;10.124;2023-11-21T05:28:33;101447.75;;;7.53;100.00
18652;BME280;9455;54.302;10.124;2023-11-21T05:31:00;101453.56;;;7.59;100.00
18652;BME280;9455;54.302;10.124;2023-11-21T05:33:28;101450.91;;;7.59;100.00
18652;BME280;9455;54.302;10.124;2023-11-21T05:35:54;101455.97;;;7.62;100.00
18652;BME280;9455;54.302;10.124;2023-11-21T05:38:21;101453.03;;;7.67;100.00
18652;BME280;9455;54.302;10.124;2023-11-21T05:40:48;101464.91;;;7.61;100.00
18652;BME280;9455;54.302;10.124;2023-11-21T05:43:14;101465.19;;;7.57;100.00
18652;BME280;9455;54.302;10.124;2023-11-21T05:45:41;101475.53;;;7.61;100.00
18652;BME280;9455;54.302;10.124;2023-11-21T05:48:08;101475.06;;;7.55;100.00
18652;BME280;9455;54.302;10.124;2023-11-21T05:50:36;101487.09;;;7.60;100.00
18652;BME280;9455;54.302;10.124;2023-11-21T05:53:03;101472.03;;;7.47;100.00
18652;BME280;9455;54.302;10.124;2023-11-21T05:55:30;101477.44;;;7.59;100.00
18652;BME280;9455;54.302;10.124;2023-11-21T05:57:56;101485.31;;;7.61;100.00
18652;BME280;9455;54.302;10.124;2023-11-21T06:00:23;101491.94;;;7.54;100.00
18652;BME280;9455;54.302;10.124;2023-11-21T06:02:51;101498.00;;;7.42;100.00
18652;BME280;9455;54.302;10.124;2023-11-21T06:05:19;101503.50;;;7.53;100.00
18652;BME280;9455;54.302;10.124;2023-11-21T06:07:49;101500.84;;;7.39;100.00
18652;BME280;9455;54.302;10.124;2023-11-21T06:10:16;101513.28;;;7.52;100.00
18652;BME280;9455;54.302;10.124;2023-11-21T06:12:44;101517.03;;;7.48;100.00
18652;BME280;9455;54.302;10.124;2023-11-21T06:15:12;101513.06;;;7.55;100.00
18652;BME280;9455;54.302;10.124;2023-11-21T06:17:40;101524.91;;;7.50;100.00
18652;BME280;9455;54.302;10.124;2023-11-21T06:20:09;101521.34;;;7.51;100.00
18652;BME280;9455;54.302;10.124;2023-11-21T06:22:40;101526.72;;;7.49;100.00
18652;BME280;9455;54.302;10.124;2023-11-21T06:25:09;101525.88;;;7.35;100.00
18652;BME280;9455;54.302;10.124;2023-11-21T06:27:39;101547.88;;;7.37;100.00
18652;BME280;9455;54.302;10.124;2023-11-21T06:30:07;101543.31;;;7.39;100.00
18652;BME280;9455;54.302;10.124;2023-11-21T06:32:35;101545.94;;;7.39;100.00
18652;BME280;9455;54.302;10.124;2023-11-21T06:35:02;101550.38;;;7.24;100.00
18652;BME280;9455;54.302;10.124;2023-11-21T06:37:29;101553.44;;;7.32;100.00
18652;BME280;9455;54.302;10.124;2023-11-21T06:39:58;101560.34;;;7.35;100.00
18652;BME280;9455;54.302;10.124;2023-11-21T06:42:26;101568.13;;;7.24;100.00
18652;BME280;9455;54.302;10.124;2023-11-21T06:44:54;101581.38;;;7.24;100.00
18652;BME280;9455;54.302;10.124;2023-11-21T06:47:23;101592.38;;;7.32;100.00
18652;BME280;9455;54.302;10.124;2023-11-21T06:49:50;101591.91;;;7.25;100.00
18652;BME280;9455;54.302;10.124;2023-11-21T06:52:17;101592.00;;;7.38;100.00
18652;BME280;9455;54.302;10.124;2023-11-21T06:54:44;101605.34;;;7.22;100.00
18652;BME280;9455;54.302;10.124;2023-11-21T06:57:11;101614.56;;;7.31;100.00
18652;BME280;9455;54.302;10.124;2023-11-21T06:59:39;101620.72;;;7.31;100.00
18652;BME280;9455;54.302;10.124;2023-11-21T07:02:06;101608.00;;;7.22;100.00
18652;BME280;9455;54.302;10.124;2023-11-21T07:04:32;101619.09;;;7.29;100.00
18652;BME280;9455;54.302;10.124;2023-11-21T07:06:59;101619.47;;;7.23;100.00
18652;BME280;9455;54.302;10.124;2023-11-21T07:09:26;101628.53;;;7.19;100.00
18652;BME280;9455;54.302;10.124;2023-11-21T07:11:53;101634.59;;;7.21;100.00
18652;BME280;9455;54.302;10.124;2023-11-21T07:14:20;101636.13;;;7.25;100.00
18652;BME280;9455;54.302;10.124;2023-11-21T07:16:48;101641.25;;;7.28;100.00
18652;BME280;9455;54.302;10.124;2023-11-21T07:19:15;101643.34;;;7.23;100.00
18652;BME280;9455;54.302;10.124;2023-11-21T07:21:41;101638.78;;;7.25;100.00
18652;BME280;9455;54.302;10.124;2023-11-21T07:24:08;101639.13;;;7.19;100.00
18652;BME280;9455;54.302;10.124;2023-11-21T07:26:36;101643.16;;;7.40;100.00
18652;BME280;9455;54.302;10.124;2023-11-21T07:29:04;101646.88;;;7.37;100.00
18652;BME280;9455;54.302;10.124;2023-11-21T07:31:31;101642.03;;;7.30;100.00
18652;BME280;9455;54.302;10.124;2023-11-21T07:34:01;101655.09;;;7.33;100.00
18652;BME280;9455;54.302;10.124;2023-11-21T07:36:27;101658.13;;;7.27;100.00
18652;BME280;9455;54.302;10.124;2023-11-21T07:38:54;101656.22;;;7.29;100.00
18652;BME280;9455;54.302;10.124;2023-11-21T07:41:20;101664.06;;;7.16;100.00
18652;BME280;9455;54.302;10.124;2023-11-21T07:43:47;101658.88;;;7.29;100.00
18652;BME280;9455;54.302;10.124;2023-11-21T07:46:14;101663.31;;;7.14;100.00
18652;BME280;9455;54.302;10.124;2023-11-21T07:48:41;101659.25;;;7.23;100.00
18652;BME280;9455;54.302;10.124;2023-11-21T07:51:09;101663.47;;;7.11;100.00
18652;BME280;9455;54.302;10.124;2023-11-21T07:53:37;101671.53;;;7.10;100.00
18652;BME280;9455;54.302;10.124;2023-11-21T07:56:06;101677.06;;;7.21;100.00
18652;BME280;9455;54.302;10.124;2023-11-21T07:58:33;101679.56;;;7.38;100.00
18652;BME280;9455;54.302;10.124;2023-11-21T08:01:00;101678.97;;;7.33;100.00
18652;BME280;9455;54.302;10.124;2023-11-21T08:03:27;101676.13;;;7.36;100.00
18652;BME280;9455;54.302;10.124;2023-11-21T08:05:54;101674.84;;;7.43;100.00
18652;BME280;9455;54.302;10.124;2023-11-21T08:08:23;101682.78;;;7.43;100.00
18652;BME280;9455;54.302;10.124;2023-11-21T08:10:49;101689.22;;;7.39;100.00
18652;BME280;9455;54.302;10.124;2023-11-21T08:13:21;101694.09;;;7.46;100.00
18652;BME280;9455;54.302;10.124;2023-11-21T08:15:48;101705.75;;;7.44;100.00
18652;BME280;9455;54.302;10.124;2023-11-21T08:18:15;101703.72;;;7.33;100.00
18652;BME280;9455;54.302;10.124;2023-11-21T08:20:43;101708.50;;;7.42;100.00
18652;BME280;9455;54.302;10.124;2023-11-21T08:23:13;101726.06;;;7.59;100.00
18652;BME280;9455;54.302;10.124;2023-11-21T08:25:42;101735.69;;;7.46;100.00
18652;BME280;9455;54.302;10.124;2023-11-21T08:28:09;101733.28;;;7.41;100.00
18652;BME280;9455;54.302;10.124;2023-11-21T08:30:35;101738.50;;;7.43;100.00
18652;BME280;9455;54.302;10.124;2023-11-21T08:33:02;101741.25;;;7.41;100.00
18652;BME280;9455;54.302;10.124;2023-11-21T08:35:29;101732.97;;;7.32;100.00
18652;BME280;9455;54.302;10.124;2023-11-21T08:37:56;101735.88;;;7.43;100.00
18652;BME280;9455;54.302;10.124;2023-11-21T08:40:22;101731.91;;;7.50;100.00
18652;BME280;9455;54.302;10.124;2023-11-21T08:42:50;101736.56;;;7.46;100.00
18652;BME280;9455;54.302;10.124;2023-11-21T08:45:18;101740.19;;;7.59;100.00
18652;BME280;9455;54.302;10.124;2023-11-21T08:47:45;101745.44;;;7.61;100.00
18652;BME280;9455;54.302;10.124;2023-11-21T08:50:12;101758.88;;;7.58;100.00
18652;BME280;9455;54.302;10.124;2023-11-21T08:52:39;101758.13;;;7.40;100.00
18652;BME280;9455;54.302;10.124;2023-11-21T08:55:06;101760.69;;;7.42;100.00
18652;BME280;9455;54.302;10.124;2023-11-21T08:57:34;101758.53;;;7.48;100.00
18652;BME280;9455;54.302;10.124;2023-11-21T09:00:02;101765.47;;;7.51;100.00
18652;BME280;9455;54.302;10.124;2023-11-21T09:02:30;101770.97;;;7.48;100.00
18652;BME280;9455;54.302;10.124;2023-11-21T09:04:58;101766.41;;;7.50;100.00
18652;BME280;9455;54.302;10.124;2023-11-21T09:07:24;101766.84;;;7.58;100.00
18652;BME280;9455;54.302;10.124;2023-11-21T09:09:51;101779.94;;;7.61;100.00
18652;BME280;9455;54.302;10.124;2023-11-21T09:12:17;101782.03;;;7.70;100.00
18652;BME280;9455;54.302;10.124;2023-11-21T09:14:44;101784.94;;;7.65;100.00
18652;BME280;9455;54.302;10.124;2023-11-21T09:17:12;101788.28;;;7.69;100.00
18652;BME280;9455;54.302;10.124;2023-11-21T09:19:39;101791.44;;;7.75;100.00
18652;BME280;9455;54.302;10.124;2023-11-21T09:22:07;101796.28;;;7.83;100.00
18652;BME280;9455;54.302;10.124;2023-11-21T09:24:33;101800.28;;;7.90;100.00
18652;BME280;9455;54.302;10.124;2023-11-21T09:27:00;101807.56;;;7.86;100.00
18652;BME280;9455;54.302;10.124;2023-11-21T09:29:27;101810.88;;;8.05;100.00
18652;BME280;9455;54.302;10.124;2023-11-21T09:31:54;101818.97;;;7.88;100.00
18652;BME280;9455;54.302;10.124;2023-11-21T09:34:25;101817.22;;;8.03;100.00
18652;BME280;9455;54.302;10.124;2023-11-21T09:36:52;101819.25;;;7.84;100.00
18652;BME280;9455;54.302;10.124;2023-11-21T09:39:19;101828.41;;;8.08;100.00
18652;BME280;9455;54.302;10.124;2023-11-21T09:41:49;101828.28;;;7.95;100.00
18652;BME280;9455;54.302;10.124;2023-11-21T09:44:18;101832.38;;;8.01;100.00
18652;BME280;9455;54.302;10.124;2023-11-21T09:46:48;101830.19;;;8.07;100.00
18652;BME280;9455;54.302;10.124;2023-11-21T09:49:18;101835.78;;;7.89;100.00
18652;BME280;9455;54.302;10.124;2023-11-21T09:51:46;101841.13;;;8.03;100.00
18652;BME280;9455;54.302;10.124;2023-11-21T09:54:15;101849.28;;;8.00;100.00
18652;BME280;9455;54.302;10.124;2023-11-21T09:56:43;101847.69;;;7.82;100.00
18652;BME280;9455;54.302;10.124;2023-11-21T09:59:13;101850.88;;;8.02;100.00
18652;BME280;9455;54.302;10.124;2023-11-21T10:01:42;101840.13;;;8.19;100.00
18652;BME280;9455;54.302;10.124;2023-11-21T10:04:09;101852.59;;;8.33;100.00
18652;BME280;9455;54.302;10.124;2023-11-21T10:06:38;101857.25;;;8.29;100.00
18652;BME280;9455;54.302;10.124;2023-11-21T10:09:07;101869.25;;;8.21;100.00
18652;BME280;9455;54.302;10.124;2023-11-21T10:11:40;101867.69;;;8.32;100.00
18652;BME280;9455;54.302;10.124;2023-11-21T10:14:08;101868.31;;;7.92;100.00
18652;BME280;9455;54.302;10.124;2023-11-21T10:16:38;101869.34;;;7.90;100.00
18652;BME280;9455;54.302;10.124;2023-11-21T10:19:05;101880.28;;;7.99;100.00
18652;BME280;9455;54.302;10.124;2023-11-21T10:21:32;101881.47;;;8.09;100.00
18652;BME280;9455;54.302;10.124;2023-11-21T10:23:59;101883.06;;;8.12;100.00
18652;BME280;9455;54.302;10.124;2023-11-21T10:26:28;101885.06;;;8.24;100.00
18652;BME280;9455;54.302;10.124;2023-11-21T10:28:57;101893.25;;;8.19;100.00
18652;BME280;9455;54.302;10.124;2023-11-21T10:31:26;101888.28;;;8.13;100.00
18652;BME280;9455;54.302;10.124;2023-11-21T10:33:53;101893.78;;;8.26;100.00
18652;BME280;9455;54.302;10.124;2023-11-21T10:36:25;101899.88;;;8.12;100.00
18652;BME280;9455;54.302;10.124;2023-11-21T10:38:53;101892.44;;;8.33;100.00
18652;BME280;9455;54.302;10.124;2023-11-21T10:41:19;101893.22;;;8.35;100.00
18652;BME280;9455;54.302;10.124;2023-11-21T10:43:47;101891.34;;;8.37;100.00
18652;BME280;9455;54.302;10.124;2023-11-21T10:46:14;101899.88;;;8.42;100.00
18652;BME280;9455;54.302;10.124;2023-11-21T10:48:42;101899.56;;;8.03;100.00
18652;BME280;9455;54.302;10.124;2023-11-21T10:51:09;101898.47;;;7.91;100.00
18652;BME280;9455;54.302;10.124;2023-11-21T10:53:38;101905.91;;;7.85;100.00
18652;BME280;9455;54.302;10.124;2023-11-21T10:56:06;101901.91;;;7.78;100.00
18652;BME280;9455;54.302;10.124;2023-11-21T10:58:35;101909.13;;;7.76;100.00
18652;BME280;9455;54.302;10.124;2023-11-21T11:01:06;101900.38;;;7.74;100.00
18652;BME280;9455;54.302;10.124;2023-11-21T11:03:34;101917.94;;;7.76;100.00
18652;BME280;9455;54.302;10.124;2023-11-21T11:06:03;101912.72;;;7.75;100.00
18652;BME280;9455;54.302;10.124;2023-11-21T11:08:34;101911.94;;;7.57;100.00
18652;BME280;9455;54.302;10.124;2023-11-21T11:11:02;101926.59;;;7.49;100.00
18652;BME280;9455;54.302;10.124;2023-11-21T11:13:28;101924.63;;;7.52;100.00
18652;BME280;9455;54.302;10.124;2023-11-21T11:15:58;101924.56;;;7.54;100.00
18652;BME280;9455;54.302;10.124;2023-11-21T11:18:27;101927.38;;;7.51;100.00
18652;BME280;9455;54.302;10.124;2023-11-21T11:21:01;101932.22;;;7.43;100.00
18652;BME280;9455;54.302;10.124;2023-11-21T11:23:46;101930.38;;;7.60;100.00
18652;BME280;9455;54.302;10.124;2023-11-21T11:26:26;101924.97;;;7.46;100.00
18652;BME280;9455;54.302;10.124;2023-11-21T11:29:03;101922.72;;;7.39;100.00
18652;BME280;9455;54.302;10.124;2023-11-21T11:31:40;101928.22;;;7.36;100.00
18652;BME280;9455;54.302;10.124;2023-11-21T11:34:21;101930.88;;;7.51;100.00
18652;BME280;9455;54.302;10.124;2023-11-21T11:36:55;101936.53;;;7.61;100.00
18652;BME280;9455;54.302;10.124;2023-11-21T11:39:29;101940.13;;;7.60;100.00
18652;BME280;9455;54.302;10.124;2023-11-21T11:41:57;101939.78;;;7.50;100.00
18652;BME280;9455;54.302;10.124;2023-11-21T11:44:47;101950.41;;;7.66;100.00
18652;BME280;9455;54.302;10.124;2023-11-21T11:47:19;101945.97;;;7.51;100.00
18652;BME280;9455;54.302;10.124;2023-11-21T11:49:58;101949.97;;;7.58;100.00
18652;BME280;9455;54.302;10.124;2023-11-21T11:52:36;101956.56;;;7.51;100.00
18652;BME280;9455;54.302;10.124;2023-11-21T11:55:05;101958.59;;;7.46;100.00
18652;BME280;9455;54.302;10.124;2023-11-21T11:57:32;101954.34;;;7.43;100.00
18652;BME280;9455;54.302;10.124;2023-11-21T12:00:33;101958.13;;;7.55;100.00
18652;BME280;9455;54.302;10.124;2023-11-21T12:03:04;101962.78;;;7.50;100.00
18652;BME280;9455;54.302;10.124;2023-11-21T12:05:34;101964.06;;;7.43;100.00
18652;BME280;9455;54.302;10.124;2023-11-21T12:08:05;101965.09;;;7.40;100.00
18652;BME280;9455;54.302;10.124;2023-11-21T12:10:33;101972.88;;;7.28;100.00
18652;BME280;9455;54.302;10.124;2023-11-21T12:13:01;101968.28;;;7.31;100.00
18652;BME280;9455;54.302;10.124;2023-11-21T12:15:28;101973.56;;;7.47;100.00
18652;BME280;9455;54.302;10.124;2023-11-21T12:17:56;101981.75;;;7.44;100.00
18652;BME280;9455;54.302;10.124;2023-11-21T12:20:24;101992.78;;;7.52;100.00
18652;BME280;9455;54.302;10.124;2023-11-21T12:22:54;101994.53;;;7.36;100.00
18652;BME280;9455;54.302;10.124;2023-11-21T12:25:22;101998.66;;;7.41;100.00
18652;BME280;9455;54.302;10.124;2023-11-21T12:27:50;101998.50;;;7.44;100.00
18652;BME280;9455;54.302;10.124;2023-11-21T12:30:18;102000.00;;;7.33;100.00
18652;BME280;9455;54.302;10.124;2023-11-21T12:32:48;102004.16;;;7.38;100.00
18652;BME280;9455;54.302;10.124;2023-11-21T12:35:15;102006.00;;;7.21;100.00
18652;BME280;9455;54.302;10.124;2023-11-21T12:37:45;102003.09;;;7.25;100.00
18652;BME280;9455;54.302;10.124;2023-11-21T12:40:15;102011.59;;;7.15;100.00
18652;BME280;9455;54.302;10.124;2023-11-21T12:42:44;102014.03;;;7.19;100.00
18652;BME280;9455;54.302;10.124;2023-11-21T12:45:18;102014.75;;;7.23;100.00
18652;BME280;9455;54.302;10.124;2023-11-21T12:47:46;102020.63;;;7.28;100.00
18652;BME280;9455;54.302;10.124;2023-11-21T12:50:14;102015.44;;;7.42;100.00
18652;BME280;9455;54.302;10.124;2023-11-21T12:52:42;102025.47;;;7.37;100.00
18652;BME280;9455;54.302;10.124;2023-11-21T12:55:15;102023.31;;;7.43;100.00